Time;durP1;ratioP1;P1;durP2;ratioP2;P2;SDS_P1;SDS_P2;PMS_P1;PMS_P2;Temp;Humidity;BMP_temperature;BMP_pressure;BME280_temperature;BME280_humidity;BME280_pressure;Samples;Min_cycle;Max_cycle;Signal;HPM_P1;HPM_P2
2022/07/05 00:00:54;;;;;;;1.10;1.00;;;19.80;48.40;;;;;;946909;148;27864;-71
2022/07/05 00:03:21;;;;;;;0.55;0.55;;;19.80;49.10;;;;;;947265;149;27860;-71
2022/07/05 00:05:47;;;;;;;0.60;0.55;;;19.80;49.30;;;;;;945374;150;27351;-71
2022/07/05 00:08:14;;;;;;;0.75;0.75;;;19.70;49.30;;;;;;945934;148;27398;-72
2022/07/05 00:10:40;;;;;;;0.87;0.87;;;19.70;49.30;;;;;;947407;149;27310;-73
2022/07/05 00:13:07;;;;;;;1.17;1.07;;;19.70;49.40;;;;;;947466;150;27346;-71
2022/07/05 00:15:34;;;;;;;1.15;1.00;;;19.70;49.50;;;;;;947135;150;28426;-71
2022/07/05 00:18:00;;;;;;;0.78;0.68;;;19.60;49.50;;;;;;947114;148;27466;-71
2022/07/05 00:20:27;;;;;;;1.52;1.12;;;19.60;49.60;;;;;;947536;148;27781;-72
2022/07/05 00:22:53;;;;;;;1.25;0.90;;;19.50;49.80;;;;;;946948;149;27334;-71
2022/07/05 00:25:20;;;;;;;1.25;1.15;;;19.50;50.00;;;;;;947508;149;27362;-70
2022/07/05 00:27:47;;;;;;;1.15;0.85;;;19.50;50.40;;;;;;947530;150;27431;-71
2022/07/05 00:30:14;;;;;;;1.40;0.93;;;19.40;50.30;;;;;;948422;148;27751;-71
2022/07/05 00:32:41;;;;;;;1.37;0.80;;;19.40;50.50;;;;;;946942;148;27348;-71
2022/07/05 00:35:07;;;;;;;1.10;1.00;;;19.40;50.60;;;;;;950060;147;27330;-72
2022/07/05 00:37:34;;;;;;;1.85;0.90;;;19.40;50.80;;;;;;949773;147;27398;-73
2022/07/05 00:40:00;;;;;;;1.10;1.00;;;19.40;50.80;;;;;;950078;147;27483;-71
2022/07/05 00:42:27;;;;;;;0.80;0.80;;;19.30;50.80;;;;;;950524;149;27491;-71
2022/07/05 00:44:54;;;;;;;0.93;0.75;;;19.40;50.90;;;;;;948861;147;27364;-72
2022/07/05 00:47:20;;;;;;;2.33;1.10;;;19.40;51.00;;;;;;950100;149;27401;-72
2022/07/05 00:49:47;;;;;;;1.33;1.00;;;19.40;51.00;;;;;;947903;147;27281;-71
2022/07/05 00:52:13;;;;;;;2.83;0.82;;;19.40;51.10;;;;;;948688;147;27745;-73
2022/07/05 00:54:40;;;;;;;1.15;1.05;;;19.40;51.10;;;;;;950940;149;27475;-71
2022/07/05 00:57:07;;;;;;;0.85;0.80;;;19.40;51.30;;;;;;946592;149;27469;-71
2022/07/05 00:59:33;;;;;;;1.60;1.30;;;19.40;51.30;;;;;;940407;150;27271;-71
2022/07/05 01:02:00;;;;;;;2.07;1.20;;;19.40;52.00;;;;;;942210;150;27334;-73
2022/07/05 01:04:26;;;;;;;1.62;1.02;;;19.40;51.50;;;;;;944222;148;27311;-72
2022/07/05 01:06:53;;;;;;;1.43;1.00;;;19.40;51.60;;;;;;941999;148;27339;-71
2022/07/05 01:09:20;;;;;;;1.00;0.90;;;19.40;51.60;;;;;;944252;149;27411;-72
2022/07/05 01:11:46;;;;;;;1.72;0.93;;;19.30;51.70;;;;;;941592;150;27840;-71
2022/07/05 01:14:19;;;;;;;1.00;1.00;;;19.30;51.80;;;;;;942046;149;27387;-71
2022/07/05 01:16:45;;;;;;;1.07;0.98;;;19.30;51.80;;;;;;942224;149;27370;-72
2022/07/05 01:19:12;;;;;;;1.37;1.00;;;19.20;51.80;;;;;;940754;149;27453;-71
2022/07/05 01:21:41;;;;;;;2.52;0.93;;;19.20;52.00;;;;;;942313;150;27375;-71
2022/07/05 01:24:10;;;;;;;1.53;1.07;;;19.10;52.00;;;;;;939565;149;27325;-72
2022/07/05 01:26:37;;;;;;;2.10;1.03;;;19.10;52.30;;;;;;942419;150;27431;-73
2022/07/05 01:29:03;;;;;;;0.93;0.85;;;19.00;52.40;;;;;;943156;150;27326;-71
2022/07/05 01:31:30;;;;;;;0.78;0.78;;;19.00;52.70;;;;;;943389;149;27298;-72
2022/07/05 01:33:57;;;;;;;1.53;1.00;;;18.90;52.60;;;;;;940223;149;27307;-72
2022/07/05 01:36:23;;;;;;;1.40;1.00;;;18.90;52.90;;;;;;941853;150;27336;-73
2022/07/05 01:38:50;;;;;;;0.90;0.90;;;18.90;53.10;;;;;;938324;149;27366;-71
2022/07/05 01:41:16;;;;;;;2.37;1.10;;;18.80;53.20;;;;;;941267;150;27420;-71
2022/07/05 01:43:43;;;;;;;0.73;0.73;;;18.80;53.30;;;;;;941478;149;27336;-73
2022/07/05 01:46:10;;;;;;;0.80;0.80;;;18.80;53.40;;;;;;941469;150;27438;-74
2022/07/05 01:51:08;;;;;;;2.20;1.30;;;18.70;53.50;;;;;;973927;145;37618;-71
2022/07/05 01:53:35;;;;;;;1.57;1.20;;;18.60;53.90;;;;;;953025;148;27273;-70
2022/07/05 01:56:01;;;;;;;0.80;0.80;;;18.60;54.00;;;;;;952909;148;27388;-72
2022/07/05 01:58:28;;;;;;;0.70;0.70;;;18.60;54.00;;;;;;955398;147;27361;-70
2022/07/05 02:00:55;;;;;;;1.23;1.20;;;18.50;54.10;;;;;;954903;148;27791;-70
2022/07/05 02:03:21;;;;;;;1.37;1.13;;;18.40;54.20;;;;;;954490;148;27309;-70
2022/07/05 02:05:48;;;;;;;1.42;1.30;;;18.40;54.40;;;;;;955089;148;27398;-71
2022/07/05 02:08:14;;;;;;;3.20;1.30;;;18.30;54.40;;;;;;954954;148;27346;-71
2022/07/05 02:10:41;;;;;;;2.90;1.17;;;18.20;54.50;;;;;;954188;148;27340;-73
2022/07/05 02:13:08;;;;;;;1.20;1.10;;;18.10;54.60;;;;;;955790;148;28112;-70
2022/07/05 02:15:34;;;;;;;1.12;1.10;;;18.10;54.70;;;;;;953200;148;27387;-71
2022/07/05 02:18:01;;;;;;;2.07;1.00;;;18.00;54.70;;;;;;955432;148;27420;-73
2022/07/05 02:20:27;;;;;;;0.83;0.83;;;17.90;54.90;;;;;;953421;148;27411;-73
2022/07/05 02:22:54;;;;;;;2.10;1.50;;;17.80;55.00;;;;;;952825;147;27330;-73
2022/07/05 02:25:20;;;;;;;1.87;1.10;;;17.70;55.10;;;;;;955522;148;28614;-73
2022/07/05 02:27:47;;;;;;;1.90;1.40;;;17.60;55.30;;;;;;954965;148;27278;-73
2022/07/05 02:30:14;;;;;;;1.10;1.10;;;17.50;55.40;;;;;;954603;148;27349;-75
2022/07/05 02:32:40;;;;;;;1.50;1.07;;;17.40;55.50;;;;;;956087;148;27290;-75
2022/07/05 02:35:07;;;;;;;1.10;1.10;;;17.30;55.60;;;;;;953083;148;27337;-75
2022/07/05 02:37:33;;;;;;;1.47;1.10;;;17.30;55.70;;;;;;955546;148;27823;-75
2022/07/05 02:40:00;;;;;;;2.33;1.13;;;17.20;55.80;;;;;;954304;148;27318;-75
2022/07/05 02:42:27;;;;;;;2.50;1.50;;;17.20;56.10;;;;;;954889;148;27313;-75
2022/07/05 02:44:53;;;;;;;1.27;1.10;;;17.10;56.30;;;;;;955470;148;27296;-75
2022/07/05 02:47:20;;;;;;;2.87;1.20;;;17.00;56.40;;;;;;955057;148;27424;-75
2022/07/05 02:49:46;;;;;;;1.20;1.10;;;16.90;56.60;;;;;;952507;148;27422;-75
2022/07/05 02:52:13;;;;;;;1.17;1.10;;;16.90;56.80;;;;;;954368;148;27431;-76
2022/07/05 02:54:40;;;;;;;1.23;1.07;;;16.80;56.90;;;;;;955438;148;27385;-75
2022/07/05 02:57:06;;;;;;;0.80;0.80;;;16.80;57.10;;;;;;953324;148;27281;-75
2022/07/05 02:59:33;;;;;;;1.30;1.20;;;16.60;57.20;;;;;;955244;148;27316;-75
2022/07/05 03:01:59;;;;;;;1.10;1.00;;;16.60;57.30;;;;;;953836;148;27348;-75
2022/07/05 03:04:26;;;;;;;2.17;1.23;;;16.50;57.40;;;;;;954380;148;27400;-75
2022/07/05 03:06:52;;;;;;;1.17;1.07;;;16.50;57.70;;;;;;953648;148;27334;-75
2022/07/05 03:09:19;;;;;;;1.17;1.00;;;16.50;58.00;;;;;;955328;148;27290;-75
2022/07/05 03:11:46;;;;;;;1.13;1.00;;;16.40;58.30;;;;;;953072;148;27349;-75
2022/07/05 03:14:12;;;;;;;1.33;1.20;;;16.40;58.40;;;;;;953753;148;27365;-74
2022/07/05 03:16:39;;;;;;;1.80;1.17;;;16.40;58.10;;;;;;955935;148;27394;-75
2022/07/05 03:19:05;;;;;;;2.07;1.13;;;16.40;58.80;;;;;;955520;148;27326;-75
2022/07/05 03:21:32;;;;;;;1.87;1.30;;;16.50;59.00;;;;;;952839;148;27286;-75
2022/07/05 03:23:59;;;;;;;5.27;1.53;;;16.50;59.00;;;;;;953781;148;27341;-75
2022/07/05 03:26:25;;;;;;;1.03;0.97;;;16.50;59.10;;;;;;955555;148;27426;-75
2022/07/05 03:28:52;;;;;;;1.03;0.93;;;16.50;59.00;;;;;;954743;148;27316;-75
2022/07/05 03:31:18;;;;;;;1.40;1.30;;;16.50;59.10;;;;;;955107;148;27337;-75
2022/07/05 03:33:45;;;;;;;1.10;1.00;;;16.50;59.20;;;;;;953836;148;27455;-75
2022/07/05 03:36:12;;;;;;;1.50;1.33;;;16.50;59.30;;;;;;954090;148;27305;-75
2022/07/05 03:38:38;;;;;;;3.43;1.50;;;16.60;59.50;;;;;;954895;148;27271;-75
2022/07/05 03:41:05;;;;;;;2.03;1.10;;;16.60;59.60;;;;;;954567;148;27301;-75
2022/07/05 03:43:31;;;;;;;1.20;1.10;;;16.60;59.60;;;;;;954857;148;27387;-75
2022/07/05 03:45:58;;;;;;;1.30;1.20;;;16.60;59.60;;;;;;953393;148;27357;-75
2022/07/05 03:48:24;;;;;;;1.50;1.13;;;16.60;59.40;;;;;;954902;148;27366;-75
2022/07/05 03:50:51;;;;;;;1.20;1.10;;;16.60;59.40;;;;;;954826;148;27346;-75
2022/07/05 03:53:18;;;;;;;1.10;1.10;;;16.60;59.50;;;;;;952720;148;27380;-75
2022/07/05 03:55:44;;;;;;;1.30;1.10;;;16.60;59.50;;;;;;955372;148;27271;-75
2022/07/05 03:58:11;;;;;;;1.97;1.57;;;16.50;59.40;;;;;;955820;148;27364;-75
2022/07/05 04:00:37;;;;;;;1.27;1.27;;;16.50;59.50;;;;;;954033;148;27330;-75
2022/07/05 04:03:04;;;;;;;1.70;1.30;;;16.50;59.50;;;;;;955408;148;27451;-75
2022/07/05 04:05:31;;;;;;;1.33;1.23;;;16.50;59.60;;;;;;953016;148;27334;-75
2022/07/05 04:07:57;;;;;;;1.50;1.40;;;16.40;59.60;;;;;;955201;148;27453;-75
2022/07/05 04:10:24;;;;;;;3.87;1.47;;;16.40;59.70;;;;;;953182;148;27243;-75
2022/07/05 04:12:50;;;;;;;1.43;1.30;;;16.40;59.80;;;;;;954394;148;27432;-75
2022/07/05 04:15:17;;;;;;;1.50;1.40;;;16.40;60.00;;;;;;953885;148;27403;-75
2022/07/05 04:17:46;;;;;;;1.20;1.20;;;16.40;60.20;;;;;;954444;148;27288;-75
2022/07/05 04:20:13;;;;;;;1.30;1.20;;;16.40;60.30;;;;;;954714;148;27365;-75
2022/07/05 04:22:39;;;;;;;1.37;1.27;;;16.40;60.50;;;;;;954494;148;27268;-75
2022/07/05 04:25:18;;;;;;;1.33;1.23;;;16.40;60.70;;;;;;953142;148;27310;-75
2022/07/05 04:27:47;;;;;;;2.40;1.33;;;16.50;61.00;;;;;;956046;148;27795;-75
2022/07/05 04:30:14;;;;;;;1.20;1.10;;;16.50;61.30;;;;;;954106;148;27460;-75
2022/07/05 04:32:40;;;;;;;3.20;2.07;;;16.60;61.70;;;;;;955300;148;27442;-75
2022/07/05 04:35:07;;;;;;;1.57;1.40;;;16.70;61.90;;;;;;954029;148;27345;-75
2022/07/05 04:37:33;;;;;;;1.83;1.30;;;16.80;62.10;;;;;;956409;148;27463;-74
2022/07/05 04:40:00;;;;;;;2.40;1.50;;;16.90;62.10;;;;;;952412;148;27783;-75
2022/07/05 04:42:27;;;;;;;3.27;1.97;;;17.00;62.10;;;;;;954593;148;27389;-75
2022/07/05 04:44:53;;;;;;;3.70;1.80;;;17.10;62.10;;;;;;955842;148;27318;-75
2022/07/05 04:47:20;;;;;;;1.77;1.63;;;17.20;62.00;;;;;;955574;148;27315;-75
2022/07/05 04:49:46;;;;;;;1.45;1.37;;;17.30;61.90;;;;;;954669;148;27364;-75
2022/07/05 04:52:13;;;;;;;1.37;1.33;;;17.50;61.90;;;;;;944293;148;27797;-75
2022/07/05 04:54:39;;;;;;;1.70;1.60;;;17.60;62.00;;;;;;938054;149;27447;-75
2022/07/05 04:57:06;;;;;;;1.55;1.45;;;17.80;62.20;;;;;;939836;149;27299;-75
2022/07/05 04:59:33;;;;;;;2.20;1.70;;;18.10;63.00;;;;;;938623;149;27399;-75
2022/07/05 05:01:59;;;;;;;1.60;1.50;;;18.50;63.90;;;;;;937169;149;27389;-75
2022/07/05 05:04:26;;;;;;;1.62;1.52;;;19.10;64.40;;;;;;938501;149;27476;-75
2022/07/05 05:06:52;;;;;;;1.35;1.02;;;19.70;64.50;;;;;;938712;149;27443;-76
2022/07/05 05:09:20;;;;;;;1.20;1.10;;;20.50;64.30;;;;;;939026;149;27380;-75
2022/07/05 05:11:46;;;;;;;1.35;1.20;;;21.30;63.50;;;;;;938338;149;27324;-75
2022/07/05 05:14:12;;;;;;;1.30;1.22;;;22.20;62.40;;;;;;940536;149;27374;-76
2022/07/05 05:16:39;;;;;;;1.47;1.35;;;23.10;61.10;;;;;;937812;149;27510;-73
2022/07/05 05:19:05;;;;;;;1.30;1.20;;;24.00;59.80;;;;;;939396;149;27770;-74
2022/07/05 05:21:32;;;;;;;1.60;1.30;;;24.90;58.60;;;;;;939501;149;27629;-73
2022/07/05 05:23:59;;;;;;;1.30;1.20;;;25.70;57.40;;;;;;939931;149;27446;-73
2022/07/05 05:26:25;;;;;;;3.75;1.40;;;26.50;56.30;;;;;;940375;149;27360;-73
2022/07/05 05:28:52;;;;;;;1.57;1.25;;;27.30;55.10;;;;;;940326;149;27404;-74
2022/07/05 05:31:18;;;;;;;0.93;0.93;;;28.10;54.20;;;;;;937929;149;27476;-73
2022/07/05 05:33:45;;;;;;;1.77;1.32;;;28.90;53.10;;;;;;938565;149;27315;-74
2022/07/05 05:36:14;;;;;;;1.27;1.20;;;29.60;52.20;;;;;;940552;148;27340;-73
2022/07/05 05:38:41;;;;;;;1.20;1.10;;;30.40;51.10;;;;;;939872;149;27803;-74
2022/07/05 05:41:07;;;;;;;1.85;1.10;;;31.00;50.00;;;;;;941452;149;27414;-74
2022/07/05 05:43:34;;;;;;;2.12;1.15;;;31.80;49.00;;;;;;940699;148;27358;-73
2022/07/05 05:46:00;;;;;;;1.77;1.27;;;32.40;48.20;;;;;;936770;149;27362;-73
2022/07/05 05:48:27;;;;;;;2.37;1.12;;;33.00;47.10;;;;;;938860;149;27328;-73
2022/07/05 05:50:54;;;;;;;1.20;1.10;;;33.50;46.30;;;;;;936896;149;27425;-73
2022/07/05 05:53:20;;;;;;;1.30;1.20;;;34.10;45.50;;;;;;939114;149;27995;-74
2022/07/05 05:55:47;;;;;;;1.40;1.30;;;34.60;44.40;;;;;;938099;149;27303;-74
2022/07/05 05:58:13;;;;;;;1.72;1.00;;;35.10;43.70;;;;;;937575;148;27370;-75
2022/07/05 06:00:40;;;;;;;1.60;1.50;;;35.50;43.00;;;;;;938152;149;27347;-73
2022/07/05 06:03:06;;;;;;;0.80;0.75;;;35.90;42.30;;;;;;939133;149;26270;-75
2022/07/05 06:05:33;;;;;;;1.32;1.20;;;36.30;41.70;;;;;;939182;148;26266;-75
2022/07/05 06:08:00;;;;;;;1.77;1.12;;;36.70;40.80;;;;;;938570;149;26247;-76
2022/07/05 06:10:29;;;;;;;1.02;0.93;;;37.00;40.20;;;;;;939287;149;27459;-75
2022/07/05 06:12:55;;;;;;;1.40;1.30;;;37.40;39.70;;;;;;938936;149;26310;-76
2022/07/05 06:15:22;;;;;;;1.32;1.22;;;37.70;39.10;;;;;;937058;149;26278;-76
2022/07/05 06:17:48;;;;;;;1.12;1.02;;;38.00;38.20;;;;;;938224;149;26222;-76
2022/07/05 06:20:18;;;;;;;1.85;1.10;;;38.20;37.60;;;;;;939583;149;26332;-76
2022/07/05 06:22:44;;;;;;;1.87;1.20;;;38.40;37.10;;;;;;939206;149;26262;-75
2022/07/05 06:25:11;;;;;;;1.90;1.10;;;38.50;36.70;;;;;;939107;149;26274;-77
2022/07/05 06:27:43;;;;;;;0.82;0.82;;;38.60;36.40;;;;;;940546;149;26274;-77
2022/07/05 06:30:10;;;;;;;1.20;1.10;;;38.80;36.20;;;;;;938153;149;26578;-76
2022/07/05 06:32:37;;;;;;;1.22;1.12;;;39.00;36.60;;;;;;938084;149;26246;-77
2022/07/05 06:35:03;;;;;;;1.17;1.07;;;39.30;35.60;;;;;;938117;149;26295;-76
2022/07/05 06:37:30;;;;;;;1.17;0.88;;;39.50;34.90;;;;;;938511;149;26450;-76
2022/07/05 06:39:56;;;;;;;0.70;0.70;;;39.80;34.50;;;;;;932582;149;26601;-77
2022/07/05 06:42:23;;;;;;;1.55;0.65;;;40.00;33.80;;;;;;939809;150;27433;-76
2022/07/05 06:44:50;;;;;;;1.50;0.62;;;40.30;33.20;;;;;;935057;149;27326;-76
2022/07/05 06:47:16;;;;;;;0.82;0.80;;;40.50;33.00;;;;;;936538;149;26368;-75
2022/07/05 06:49:43;;;;;;;1.75;0.85;;;40.70;32.60;;;;;;938018;149;27463;-77
2022/07/05 06:52:09;;;;;;;1.22;0.60;;;40.90;32.10;;;;;;939940;149;26334;-77
2022/07/05 06:54:36;;;;;;;1.62;0.50;;;41.20;31.60;;;;;;948218;149;26211;-76
2022/07/05 06:57:02;;;;;;;1.42;0.70;;;41.50;31.40;;;;;;946586;149;26322;-76
2022/07/05 06:59:29;;;;;;;1.30;0.65;;;41.80;31.30;;;;;;948378;149;26379;-76
2022/07/05 07:01:56;;;;;;;1.20;0.70;;;42.00;31.00;;;;;;946702;149;26348;-76
2022/07/05 07:04:22;;;;;;;0.60;0.60;;;42.40;30.70;;;;;;947162;149;28478;-77
2022/07/05 07:06:49;;;;;;;0.88;0.88;;;42.80;30.40;;;;;;946839;149;26211;-76
2022/07/05 07:09:18;;;;;;;1.85;0.70;;;43.20;30.10;;;;;;948123;149;26852;-77
2022/07/05 07:11:45;;;;;;;1.02;0.82;;;43.60;29.60;;;;;;945676;149;26277;-75
2022/07/05 07:14:11;;;;;;;0.70;0.70;;;43.80;29.00;;;;;;946817;149;26338;-77
2022/07/05 07:16:38;;;;;;;1.57;0.68;;;44.00;28.50;;;;;;946253;149;26223;-77
2022/07/05 07:19:04;;;;;;;0.70;0.70;;;44.10;28.40;;;;;;948408;149;26338;-76
2022/07/05 07:21:31;;;;;;;0.53;0.53;;;44.20;28.30;;;;;;948061;149;26203;-76
2022/07/05 07:23:57;;;;;;;1.25;0.90;;;44.40;28.10;;;;;;945719;149;26282;-76
2022/07/05 07:26:24;;;;;;;2.58;0.68;;;44.60;27.80;;;;;;948275;149;26395;-77
2022/07/05 07:28:51;;;;;;;0.90;0.60;;;44.70;27.40;;;;;;946720;149;26305;-76
2022/07/05 07:31:17;;;;;;;0.75;0.65;;;44.80;27.20;;;;;;946210;149;26242;-77
2022/07/05 07:33:44;;;;;;;1.52;0.70;;;44.90;27.20;;;;;;948156;149;26224;-76
2022/07/05 07:36:10;;;;;;;0.70;0.70;;;45.10;27.10;;;;;;948599;149;26355;-77
2022/07/05 07:38:37;;;;;;;0.88;0.68;;;45.30;27.10;;;;;;947141;149;26644;-76
2022/07/05 07:41:04;;;;;;;1.50;0.40;;;45.50;26.50;;;;;;947408;149;26172;-77
2022/07/05 07:43:30;;;;;;;2.37;1.15;;;45.60;26.90;;;;;;950096;149;26199;-77
2022/07/05 07:45:57;;;;;;;0.90;0.62;;;45.80;26.30;;;;;;947214;149;26347;-77
2022/07/05 07:48:23;;;;;;;0.80;0.60;;;45.90;26.30;;;;;;947576;149;26296;-76
2022/07/05 07:50:50;;;;;;;0.60;0.40;;;46.10;26.10;;;;;;947665;149;26594;-76
2022/07/05 07:53:17;;;;;;;1.45;0.88;;;46.20;25.90;;;;;;948261;149;26321;-77
2022/07/05 07:55:43;;;;;;;1.20;0.70;;;46.40;25.80;;;;;;948540;149;26220;-77
2022/07/05 07:58:10;;;;;;;2.83;0.88;;;46.50;25.70;;;;;;945597;149;26291;-76
2022/07/05 08:00:36;;;;;;;1.85;0.95;;;46.70;25.60;;;;;;949055;147;26368;-77
2022/07/05 08:03:03;;;;;;;1.80;0.68;;;46.80;25.40;;;;;;947036;149;26239;-77
2022/07/05 08:05:29;;;;;;;2.75;0.90;;;47.00;25.20;;;;;;945990;149;26332;-76
2022/07/05 08:07:56;;;;;;;1.32;0.90;;;47.20;24.90;;;;;;945594;149;26281;-76
2022/07/05 08:10:23;;;;;;;1.30;0.88;;;47.30;24.70;;;;;;947199;149;26580;-76
2022/07/05 08:12:49;;;;;;;3.50;0.90;;;47.50;24.50;;;;;;946590;149;26299;-77
2022/07/05 08:15:16;;;;;;;0.90;0.82;;;47.60;24.30;;;;;;949049;149;26259;-76
2022/07/05 08:21:30;;;;;;;1.20;0.70;;;47.70;24.00;;;;;;944773;149;26235;-77
2022/07/05 08:22:54;;;;;;;1.62;0.65;;;47.70;23.90;;;;;;947102;149;26349;-76
2022/07/05 08:25:21;;;;;;;1.37;0.70;;;47.70;23.70;;;;;;945827;149;27158;-76
2022/07/05 08:27:47;;;;;;;3.02;0.95;;;47.60;23.50;;;;;;947164;149;26372;-76
2022/07/05 08:30:16;;;;;;;0.93;0.70;;;47.60;23.30;;;;;;947431;149;26300;-76
2022/07/05 08:32:41;;;;;;;0.30;0.30;;;47.50;23.20;;;;;;948091;149;26292;-76
2022/07/05 08:35:07;;;;;;;0.75;0.75;;;47.50;23.00;;;;;;947272;149;26247;-77
2022/07/05 08:37:34;;;;;;;1.60;0.60;;;47.40;22.80;;;;;;948627;148;26351;-77
2022/07/05 08:40:00;;;;;;;2.80;0.82;;;47.40;22.90;;;;;;945715;147;26187;-78
2022/07/05 08:42:27;;;;;;;2.85;0.93;;;47.40;23.00;;;;;;949102;149;26211;-77
2022/07/05 08:44:53;;;;;;;1.12;1.02;;;47.50;23.00;;;;;;947653;149;26285;-76
2022/07/05 08:47:20;;;;;;;1.80;1.50;;;47.70;22.90;;;;;;950146;149;26200;-76
2022/07/05 08:49:46;;;;;;;1.25;1.10;;;47.90;22.90;;;;;;947328;149;26571;-77
2022/07/05 08:52:14;;;;;;;1.62;1.25;;;48.10;22.80;;;;;;947232;149;26408;-77
2022/07/05 08:54:40;;;;;;;0.82;0.82;;;48.40;22.60;;;;;;946972;147;26336;-77
2022/07/05 08:57:06;;;;;;;1.05;0.70;;;48.60;22.40;;;;;;946967;149;26218;-77
2022/07/05 08:59:33;;;;;;;1.45;0.80;;;48.80;22.10;;;;;;948361;149;26247;-77
2022/07/05 09:02:00;;;;;;;1.67;0.90;;;48.90;21.80;;;;;;946950;149;26293;-76
2022/07/05 09:04:26;;;;;;;0.80;0.75;;;48.90;21.70;;;;;;948007;149;26318;-76
2022/07/05 09:06:53;;;;;;;1.10;0.57;;;49.00;21.60;;;;;;946684;149;26328;-76
2022/07/05 09:09:19;;;;;;;2.67;0.88;;;49.10;21.80;;;;;;944132;149;26188;-76
2022/07/05 09:11:48;;;;;;;0.90;0.60;;;49.20;21.60;;;;;;945945;149;26278;-77
2022/07/05 09:14:18;;;;;;;3.02;0.42;;;49.40;21.40;;;;;;947716;149;26298;-77
2022/07/05 09:16:45;;;;;;;0.95;0.60;;;49.60;21.50;;;;;;944813;149;26332;-77
2022/07/05 09:19:11;;;;;;;1.05;0.60;;;49.80;21.30;;;;;;947619;149;26239;-77
2022/07/05 09:21:38;;;;;;;0.80;0.53;;;49.90;21.10;;;;;;946138;149;26307;-76
2022/07/05 09:24:04;;;;;;;0.90;0.70;;;50.00;20.90;;;;;;947350;149;26326;-76
2022/07/05 09:26:34;;;;;;;0.50;0.50;;;50.00;20.90;;;;;;948458;149;26253;-76
2022/07/05 09:29:00;;;;;;;1.30;0.68;;;50.10;20.60;;;;;;946812;149;26211;-74
2022/07/05 09:31:27;;;;;;;0.72;0.70;;;50.10;20.60;;;;;;947905;149;26309;-75
2022/07/05 09:33:53;;;;;;;0.60;0.40;;;50.10;20.40;;;;;;949090;149;26223;-74
2022/07/05 09:36:20;;;;;;;0.93;0.57;;;50.00;20.40;;;;;;947189;149;26334;-75
2022/07/05 09:38:50;;;;;;;3.20;0.72;;;49.90;20.30;;;;;;947160;149;26286;-76
2022/07/05 09:41:16;;;;;;;1.75;0.60;;;49.90;20.20;;;;;;947883;149;26320;-75
2022/07/05 09:43:43;;;;;;;1.17;0.60;;;49.70;19.90;;;;;;945754;149;26265;-75
2022/07/05 09:46:09;;;;;;;1.45;0.50;;;49.40;19.50;;;;;;946674;149;26596;-75
2022/07/05 09:48:36;;;;;;;1.30;0.57;;;49.00;19.70;;;;;;948656;149;26234;-75
2022/07/05 09:51:09;;;;;;;0.95;0.65;;;48.40;20.00;;;;;;949818;149;26243;-75
2022/07/05 09:53:50;;;;;;;0.68;0.55;;;47.90;20.10;;;;;;947941;149;26296;-73
2022/07/05 09:58:49;;;;;;;0.93;0.53;;;47.20;19.90;;;;;;974075;144;36097;-74
2022/07/05 10:01:28;;;;;;;0.85;0.50;;;45.60;20.40;;;;;;961350;147;26372;-75
2022/07/05 10:03:54;;;;;;;2.20;0.55;;;45.00;20.90;;;;;;961077;147;26214;-75
2022/07/05 10:06:23;;;;;;;1.22;0.60;;;44.50;21.20;;;;;;960373;147;26359;-75
2022/07/05 10:08:50;;;;;;;1.75;0.60;;;44.40;21.50;;;;;;959012;147;27281;-73
2022/07/05 10:11:23;;;;;;;0.88;0.72;;;44.20;21.70;;;;;;959248;147;26342;-75
2022/07/05 10:13:49;;;;;;;1.17;0.50;;;44.10;21.50;;;;;;958928;147;26250;-74
2022/07/05 10:16:18;;;;;;;2.15;1.00;;;44.00;21.30;;;;;;959188;147;26318;-74
2022/07/05 10:18:48;;;;;;;0.82;0.82;;;43.80;21.20;;;;;;959756;147;26338;-75
2022/07/05 10:21:14;;;;;;;0.60;0.60;;;43.60;21.20;;;;;;959578;147;26355;-75
2022/07/05 10:23:44;;;;;;;2.22;0.85;;;43.30;21.40;;;;;;959543;148;26344;-75
2022/07/05 10:26:13;;;;;;;2.37;0.75;;;43.00;21.50;;;;;;959907;147;27936;-74
2022/07/05 10:28:46;;;;;;;1.57;0.98;;;42.70;21.60;;;;;;960963;147;26276;-73
2022/07/05 10:31:12;;;;;;;2.42;0.75;;;42.30;21.60;;;;;;959309;147;26238;-75
2022/07/05 10:33:39;;;;;;;2.50;0.72;;;41.80;21.80;;;;;;960690;147;26156;-74
2022/07/05 10:36:06;;;;;;;1.47;0.75;;;41.30;21.80;;;;;;961518;147;26256;-74
2022/07/05 10:38:32;;;;;;;1.17;1.07;;;40.80;22.40;;;;;;959681;147;27438;-73
2022/07/05 10:40:59;;;;;;;1.77;0.78;;;40.30;21.90;;;;;;959664;147;26316;-75
2022/07/05 10:43:25;;;;;;;1.15;1.00;;;39.80;22.30;;;;;;958409;147;27438;-75
2022/07/05 10:45:52;;;;;;;1.52;0.90;;;39.40;22.60;;;;;;961991;147;26351;-74
2022/07/05 10:48:22;;;;;;;1.00;0.90;;;39.10;22.80;;;;;;960344;147;26186;-74
2022/07/05 10:50:57;;;;;;;0.78;0.70;;;38.80;22.90;;;;;;957623;147;27371;-75
2022/07/05 10:53:32;;;;;;;1.05;0.78;;;38.50;23.20;;;;;;940658;151;27421;-75
2022/07/05 10:56:04;;;;;;;0.88;0.68;;;38.30;23.30;;;;;;939154;149;26362;-74
2022/07/05 10:58:37;;;;;;;1.95;0.82;;;38.10;23.50;;;;;;938402;150;27420;-73
2022/07/05 11:01:15;;;;;;;3.45;0.85;;;37.90;23.50;;;;;;935552;153;27595;-74
2022/07/05 11:03:42;;;;;;;2.72;1.10;;;37.80;23.60;;;;;;935943;150;27516;-74
2022/07/05 11:06:08;;;;;;;1.60;0.80;;;37.70;23.60;;;;;;936381;150;27311;-75
2022/07/05 11:09:00;;;;;;;3.47;1.00;;;37.60;23.60;;;;;;935766;150;27388;-75
2022/07/05 11:11:35;;;;;;;2.00;0.80;;;37.40;23.90;;;;;;935522;153;27358;-73
2022/07/05 11:14:02;;;;;;;0.88;0.62;;;37.20;23.90;;;;;;935147;150;27469;-75
2022/07/05 11:16:31;;;;;;;1.17;0.70;;;37.00;24.10;;;;;;932351;150;27334;-75
2022/07/05 11:19:17;;;;;;;1.75;0.78;;;36.80;24.20;;;;;;935781;152;27351;-75
2022/07/05 11:22:01;;;;;;;0.85;0.70;;;36.60;24.20;;;;;;934481;150;27441;-74
2022/07/05 11:24:27;;;;;;;0.60;0.60;;;36.50;24.30;;;;;;934173;150;27371;-73
2022/07/05 11:26:54;;;;;;;0.82;0.70;;;36.30;24.20;;;;;;934755;150;27352;-75
2022/07/05 11:29:51;;;;;;;2.15;0.75;;;36.20;24.20;;;;;;934134;153;27355;-74
2022/07/05 11:32:30;;;;;;;2.40;0.80;;;36.10;24.30;;;;;;935352;153;27354;-75
2022/07/05 11:35:15;;;;;;;1.75;0.88;;;36.00;24.30;;;;;;925900;153;28689;-75
2022/07/05 11:37:56;;;;;;;0.90;0.50;;;35.80;24.30;;;;;;935198;153;27367;-74
2022/07/05 11:40:23;;;;;;;1.07;0.70;;;35.60;24.70;;;;;;906916;155;27348;-74
2022/07/05 11:42:49;;;;;;;1.25;0.70;;;35.50;24.80;;;;;;924712;153;27335;-75
2022/07/05 11:45:16;;;;;;;1.20;0.65;;;35.40;25.10;;;;;;935524;150;27309;-74
2022/07/05 11:47:43;;;;;;;1.15;0.88;;;35.20;25.10;;;;;;934712;153;27810;-74
2022/07/05 11:50:09;;;;;;;1.07;0.55;;;35.10;25.20;;;;;;935543;153;27351;-73
2022/07/05 11:52:36;;;;;;;2.20;0.80;;;35.00;25.30;;;;;;935679;150;27484;-75
2022/07/05 11:55:05;;;;;;;0.60;0.60;;;34.90;25.60;;;;;;935428;153;27359;-74
2022/07/05 11:57:32;;;;;;;1.75;0.60;;;34.80;25.40;;;;;;935106;150;27340;-75
2022/07/05 11:59:59;;;;;;;1.17;0.90;;;34.80;25.20;;;;;;935351;152;27456;-74
2022/07/05 12:02:25;;;;;;;1.57;0.60;;;34.70;25.00;;;;;;934839;152;27687;-73
2022/07/05 12:04:52;;;;;;;0.60;0.55;;;34.60;25.00;;;;;;935391;150;27403;-73
2022/07/05 12:07:24;;;;;;;0.60;0.60;;;34.50;25.20;;;;;;935403;153;27694;-74
2022/07/05 12:12:47;;;;;;;1.25;0.62;;;34.20;25.50;;;;;;935769;152;27395;-74
2022/07/05 12:15:14;;;;;;;1.17;0.68;;;34.10;25.50;;;;;;935258;150;27410;-74
2022/07/05 12:17:41;;;;;;;1.02;0.93;;;34.00;25.80;;;;;;935647;153;27485;-74
2022/07/05 12:20:07;;;;;;;3.58;0.98;;;33.90;25.90;;;;;;934814;153;27433;-75
2022/07/05 12:22:37;;;;;;;1.10;0.70;;;33.90;25.90;;;;;;935469;152;27296;-73
2022/07/05 12:25:03;;;;;;;0.57;0.57;;;33.90;25.90;;;;;;935210;152;27383;-74
2022/07/05 12:27:30;;;;;;;0.93;0.90;;;33.90;26.00;;;;;;935578;150;27346;-74
2022/07/05 12:29:56;;;;;;;1.07;0.85;;;34.00;26.30;;;;;;935351;151;27351;-74
2022/07/05 12:32:23;;;;;;;1.30;0.98;;;34.00;26.20;;;;;;934988;153;27389;-74
2022/07/05 12:34:50;;;;;;;0.95;0.75;;;34.00;26.30;;;;;;935634;153;27401;-73
2022/07/05 12:37:22;;;;;;;2.77;0.93;;;34.00;26.40;;;;;;935192;150;27443;-74
2022/07/05 12:39:49;;;;;;;1.00;0.90;;;34.00;26.50;;;;;;935412;152;27429;-73
2022/07/05 12:42:32;;;;;;;1.02;0.80;;;33.90;26.30;;;;;;936548;150;27412;-73
2022/07/05 12:45:06;;;;;;;2.20;0.80;;;33.90;26.40;;;;;;933805;150;27372;-73
2022/07/05 12:47:32;;;;;;;1.65;0.82;;;33.90;26.40;;;;;;935400;152;27829;-74
2022/07/05 12:49:59;;;;;;;1.25;0.98;;;33.80;26.20;;;;;;934163;150;27380;-74
2022/07/05 12:52:26;;;;;;;1.87;0.90;;;33.80;25.80;;;;;;935041;150;27371;-73
2022/07/05 13:00:22;;;;;;;1.70;0.65;;;33.60;26.60;;;;;;940501;152;27362;-73
2022/07/05 13:02:49;;;;;;;1.57;1.00;;;33.60;26.70;;;;;;941506;152;27475;-74
2022/07/05 13:05:21;;;;;;;0.90;0.68;;;33.50;26.20;;;;;;941305;149;27346;-74